< < Back
Terminal Aerodrome Forecast


Current Version              Previous Versions:   1  2  3  4  5  6  7  8  9  

Terminal Aerodrome Forecast

935
FTUS42 KCAE 280800 AAA
TAFAGS
TAF AMD
KAGS 280835Z 2809/2906 27007KT P6SM SCT060 BKN200
     FM281500 27015G25KT P6SM SCT040
     FM290000 29010KT P6SM SCT250
     FM290300 32005KT P6SM SKC=

Latest METAR

187
SAUS70 KWBC 281000 RRA
MTRAGS
METAR KAGS 280953Z AUTO 23008KT 10SM CLR 27/22 A2986 RMK AO2 SLP111
T02720222


USA.gov is the U.S. government's official web portal to all federal, state and local government web resources and services.